createdAt,value
2023-01-25T00:02:11.010Z,17.40
2023-01-25T00:04:40.456Z,18.77
2023-01-25T00:07:09.848Z,16.50
2023-01-25T00:09:39.306Z,14.52
2023-01-25T00:12:08.966Z,17.10
2023-01-25T00:14:38.383Z,16.42
2023-01-25T00:17:10.534Z,14.48
2023-01-25T00:19:39.949Z,19.60
2023-01-25T00:22:09.405Z,17.45
2023-01-25T00:24:38.840Z,17.75
2023-01-25T00:27:08.223Z,16.10
2023-01-25T00:29:37.577Z,16.75
2023-01-25T00:32:45.342Z,16.70
2023-01-25T00:35:15.349Z,16.25
2023-01-25T00:37:46.213Z,15.75
2023-01-25T00:40:15.975Z,17.48
2023-01-25T00:42:45.490Z,17.70
2023-01-25T00:45:15.534Z,15.80
2023-01-25T00:47:47.595Z,14.95
2023-01-25T00:50:17.040Z,15.63
2023-01-25T00:52:46.460Z,15.18
2023-01-25T00:55:16.040Z,15.65
2023-01-25T00:57:45.472Z,15.60
2023-01-25T01:00:16.027Z,17.00
2023-01-25T01:02:48.063Z,20.50
2023-01-25T01:05:17.872Z,16.00
2023-01-25T01:07:47.305Z,17.00
2023-01-25T01:10:17.162Z,18.63
2023-01-25T01:12:46.577Z,17.15
2023-01-25T01:15:15.947Z,16.65
2023-01-25T01:17:47.905Z,16.60
2023-01-25T01:20:17.565Z,17.45
2023-01-25T01:22:46.980Z,18.80
2023-01-25T01:25:16.425Z,20.17
2023-01-25T01:27:45.811Z,18.33
2023-01-25T01:30:16.007Z,17.85
2023-01-25T01:32:48.122Z,17.33
2023-01-25T01:35:17.808Z,14.15
2023-01-25T01:37:47.252Z,17.67
2023-01-25T01:40:17.597Z,14.27
2023-01-25T01:43:00.334Z,16.70
2023-01-25T01:45:53.900Z,18.13
2023-01-25T01:48:34.190Z,16.70
2023-01-25T01:51:05.902Z,17.05
2023-01-25T01:53:36.207Z,15.02
2023-01-25T01:56:08.457Z,18.27
2023-01-25T01:58:39.537Z,18.17
2023-01-25T02:01:09.015Z,17.52
2023-01-25T02:03:50.722Z,19.48
2023-01-25T02:06:27.004Z,17.58
2023-01-25T02:08:56.720Z,18.42
2023-01-25T02:11:27.079Z,18.90
2023-01-25T02:13:57.579Z,17.45
2023-01-25T02:16:29.366Z,13.32
2023-01-25T02:19:03.743Z,17.33
2023-01-25T02:21:38.367Z,17.38
2023-01-25T02:24:12.097Z,16.13
2023-01-25T02:26:44.699Z,15.40
2023-01-25T02:29:14.492Z,17.17
2023-01-25T02:31:47.161Z,12.75
2023-01-25T02:34:16.639Z,14.45
2023-01-25T02:36:46.104Z,15.88
2023-01-25T02:39:20.388Z,12.98
2023-01-25T02:41:52.601Z,15.93
2023-01-25T02:44:24.910Z,20.15
2023-01-25T02:46:54.545Z,13.90
2023-01-25T02:49:24.417Z,15.90
2023-01-25T02:51:57.325Z,16.17
2023-01-25T02:54:27.852Z,13.52
2023-01-25T02:56:59.895Z,16.45
2023-01-25T02:59:29.345Z,14.57
2023-01-25T03:01:58.894Z,12.38
2023-01-25T03:04:28.480Z,14.18
2023-01-25T03:06:57.973Z,12.65
2023-01-25T03:09:27.348Z,13.55
2023-01-25T03:11:59.298Z,13.63
2023-01-25T03:14:28.715Z,10.95
2023-01-25T03:16:58.162Z,13.70
2023-01-25T03:19:27.577Z,11.00
2023-01-25T03:21:58.023Z,12.15
2023-01-25T03:24:27.505Z,11.38
2023-01-25T03:27:16.968Z,10.52
2023-01-25T03:29:46.473Z,13.85
2023-01-25T03:32:16.175Z,13.30
2023-01-25T03:34:45.635Z,9.68
2023-01-25T03:37:15.229Z,13.40
2023-01-25T03:39:44.871Z,12.35
2023-01-25T03:42:16.931Z,13.43
2023-01-25T03:44:46.338Z,13.32
2023-01-25T03:47:16.391Z,13.52
2023-01-25T03:49:46.026Z,13.45
2023-01-25T03:52:15.461Z,14.60
2023-01-25T03:54:44.839Z,14.90
2023-01-25T03:57:16.906Z,14.80
2023-01-25T03:59:46.289Z,12.98
2023-01-25T04:02:15.765Z,14.43
2023-01-25T04:04:45.173Z,14.30
2023-01-25T04:07:14.647Z,14.93
2023-01-25T04:09:44.016Z,15.05
2023-01-25T04:12:16.045Z,16.90
2023-01-25T04:14:45.479Z,13.88
2023-01-25T04:17:14.965Z,14.65
2023-01-25T04:19:44.391Z,12.90
2023-01-25T04:22:13.803Z,11.52
2023-01-25T04:24:43.214Z,11.77
2023-01-25T04:27:12.994Z,13.10
2023-01-25T04:29:44.979Z,13.45
2023-01-25T04:32:14.443Z,13.90
2023-01-25T04:34:43.878Z,13.40
2023-01-25T04:37:13.303Z,13.13
2023-01-25T04:39:42.676Z,12.73
2023-01-25T04:42:12.060Z,14.27
2023-01-25T04:44:41.462Z,16.08
2023-01-25T04:47:13.494Z,13.48
2023-01-25T04:49:42.863Z,14.82
2023-01-25T04:52:12.324Z,13.50
2023-01-25T04:54:41.753Z,13.80
2023-01-25T04:57:13.297Z,13.95
2023-01-25T04:59:42.750Z,14.27
2023-01-25T05:02:14.838Z,15.35
2023-01-25T05:04:44.309Z,16.38
2023-01-25T05:07:13.932Z,15.07
2023-01-25T05:09:43.315Z,15.77
2023-01-25T05:12:14.134Z,15.75
2023-01-25T05:14:43.507Z,13.55
2023-01-25T05:17:15.627Z,14.25
2023-01-25T05:19:45.093Z,15.75
2023-01-25T05:22:17.289Z,14.25
2023-01-25T05:24:47.221Z,14.35
2023-01-25T05:27:16.737Z,13.50
2023-01-25T05:29:47.395Z,14.65
2023-01-25T05:32:21.614Z,15.55
2023-01-25T05:34:51.365Z,12.45
2023-01-25T05:37:22.801Z,13.75
2023-01-25T05:39:52.497Z,13.60
2023-01-25T05:42:22.028Z,12.77
2023-01-25T05:44:51.464Z,14.80
2023-01-25T05:47:23.451Z,15.25
2023-01-25T05:49:52.845Z,12.02
2023-01-25T05:52:22.514Z,14.50
2023-01-25T05:54:52.239Z,15.55
2023-01-25T05:57:21.643Z,16.92
2023-01-25T05:59:51.035Z,13.80
2023-01-25T06:02:23.363Z,14.55
2023-01-25T06:04:52.809Z,14.80
2023-01-25T06:07:24.515Z,15.57
2023-01-25T06:09:54.139Z,9.75
2023-01-25T06:12:24.107Z,14.88
2023-01-25T06:14:53.856Z,13.25
2023-01-25T06:17:25.955Z,14.70
2023-01-25T06:19:55.376Z,15.80
2023-01-25T06:22:24.788Z,15.85
2023-01-25T06:24:54.206Z,16.35
2023-01-25T06:27:23.675Z,14.73
2023-01-25T06:29:53.201Z,17.70
2023-01-25T06:32:24.194Z,16.27
2023-01-25T06:34:56.243Z,14.48
2023-01-25T06:37:25.603Z,16.95
2023-01-25T06:39:55.058Z,16.58
2023-01-25T06:42:26.728Z,15.57
2023-01-25T06:44:56.480Z,15.07
2023-01-25T06:47:25.980Z,13.50
2023-01-25T06:49:57.977Z,16.25
2023-01-25T06:52:27.433Z,15.55
2023-01-25T06:54:56.814Z,14.32
2023-01-25T06:57:26.378Z,14.70
2023-01-25T06:59:55.790Z,15.95
2023-01-25T07:02:25.240Z,12.00
2023-01-25T07:04:54.712Z,14.10
2023-01-25T07:07:26.887Z,8.15
2023-01-25T07:09:56.303Z,10.88
2023-01-25T07:12:26.009Z,11.85
2023-01-25T07:14:55.446Z,9.68
2023-01-25T07:17:25.119Z,14.70
2023-01-25T07:19:54.514Z,12.82
2023-01-25T07:22:26.629Z,13.52
2023-01-25T07:24:57.881Z,15.55
2023-01-25T07:27:27.332Z,14.40
2023-01-25T07:29:56.719Z,13.30
2023-01-25T07:32:26.308Z,14.63
2023-01-25T07:34:55.724Z,14.40
2023-01-25T07:37:28.236Z,14.70
2023-01-25T07:39:58.305Z,15.27
2023-01-25T07:42:28.020Z,14.20
2023-01-25T07:44:57.448Z,14.27
2023-01-25T07:47:26.908Z,13.80
2023-01-25T07:49:56.827Z,14.63
2023-01-25T07:52:29.286Z,13.13
2023-01-25T07:54:59.501Z,12.95
2023-01-25T07:57:28.968Z,12.30
2023-01-25T07:59:58.382Z,10.95
2023-01-25T08:02:27.786Z,12.25
2023-01-25T08:04:57.154Z,11.40
2023-01-25T08:07:31.387Z,15.13
2023-01-25T08:10:00.814Z,10.32
2023-01-25T08:12:30.683Z,14.65
2023-01-25T08:15:00.109Z,16.00
2023-01-25T08:17:32.627Z,15.55
2023-01-25T08:20:02.091Z,16.33
2023-01-25T08:22:34.701Z,14.98
2023-01-25T08:25:04.157Z,16.08
2023-01-25T08:27:33.767Z,16.20
2023-01-25T08:30:03.246Z,15.60
2023-01-25T08:32:32.658Z,12.55
2023-01-25T08:35:02.091Z,10.52
2023-01-25T08:37:34.082Z,13.10
2023-01-25T08:40:03.531Z,16.08
2023-01-25T08:42:32.988Z,17.50
2023-01-25T08:45:02.948Z,16.00
2023-01-25T08:47:33.190Z,14.90
2023-01-25T08:50:02.628Z,14.43
2023-01-25T08:52:34.663Z,15.88
2023-01-25T08:55:04.539Z,16.08
2023-01-25T08:57:34.144Z,15.70
2023-01-25T09:00:03.514Z,16.10
2023-01-25T09:02:32.946Z,16.27
2023-01-25T09:05:02.381Z,14.10
2023-01-25T09:07:38.546Z,16.65
2023-01-25T09:10:09.457Z,15.10
2023-01-25T09:12:39.143Z,16.58
2023-01-25T09:15:09.819Z,16.52
2023-01-25T09:17:39.611Z,19.30
2023-01-25T09:20:10.945Z,12.52
2023-01-25T09:22:43.039Z,13.35
2023-01-25T09:25:12.960Z,14.68
2023-01-25T09:27:42.696Z,14.65
2023-01-25T09:30:18.825Z,15.75
2023-01-25T09:32:51.266Z,15.27
2023-01-25T09:35:23.696Z,15.85
2023-01-25T09:37:56.182Z,15.55
2023-01-25T09:40:26.921Z,14.85
2023-01-25T09:43:03.320Z,15.32
2023-01-25T09:45:37.325Z,17.38
2023-01-25T09:48:20.426Z,17.23
2023-01-25T09:51:13.880Z,17.38
2023-01-25T09:53:50.660Z,13.23
2023-01-25T09:56:23.588Z,15.93
2023-01-25T09:58:54.838Z,15.40
2023-01-25T10:01:38.008Z,7.97
2023-01-25T10:04:13.663Z,11.40
2023-01-25T10:06:55.133Z,17.45
2023-01-25T10:09:38.927Z,14.57
2023-01-25T10:12:14.840Z,12.10
2023-01-25T10:14:44.464Z,19.00
2023-01-25T10:17:17.284Z,17.58
2023-01-25T10:20:00.263Z,18.50
2023-01-25T10:22:32.193Z,20.55
2023-01-25T10:25:29.987Z,14.13
2023-01-25T10:28:15.235Z,20.77
2023-01-25T10:30:50.387Z,20.55
2023-01-25T10:33:21.631Z,20.50
2023-01-25T10:35:52.701Z,22.50
2023-01-25T10:38:26.834Z,23.25
2023-01-25T10:41:03.027Z,21.92
2023-01-25T10:43:32.694Z,23.25
2023-01-25T10:46:02.116Z,23.92
2023-01-25T10:48:34.793Z,24.00
2023-01-25T10:51:04.256Z,22.17
2023-01-25T10:53:37.531Z,26.15
2023-01-25T10:56:22.509Z,26.25
2023-01-25T10:58:54.472Z,16.98
2023-01-25T11:01:33.038Z,22.83
2023-01-25T11:04:03.891Z,19.15
2023-01-25T11:06:36.040Z,21.20
2023-01-25T11:09:10.461Z,25.95
2023-01-25T11:11:42.752Z,25.60
2023-01-25T11:14:18.808Z,22.58
2023-01-25T11:16:50.560Z,26.50
2023-01-25T11:19:33.738Z,22.80
2023-01-25T11:22:04.427Z,24.73
2023-01-25T11:24:35.887Z,19.45
2023-01-25T11:27:21.211Z,20.90
2023-01-25T11:30:11.104Z,24.38
2023-01-25T11:32:41.935Z,22.38
2023-01-25T11:35:19.600Z,17.15
2023-01-25T11:38:03.685Z,13.57
2023-01-25T11:40:39.850Z,17.45
2023-01-25T11:43:19.930Z,10.80
2023-01-25T11:46:05.032Z,16.38
2023-01-25T11:49:01.844Z,15.25
2023-01-25T11:51:35.315Z,24.58
2023-01-25T11:54:33.235Z,26.02
2023-01-25T11:57:04.172Z,14.77
2023-01-25T11:59:55.938Z,20.00
2023-01-25T12:02:42.848Z,23.45
2023-01-25T12:05:22.659Z,21.35
2023-01-25T12:07:57.645Z,20.67
2023-01-25T12:10:33.201Z,22.17
2023-01-25T12:13:05.592Z,19.88
2023-01-25T12:15:52.483Z,26.73
2023-01-25T12:18:33.342Z,19.88
2023-01-25T12:21:20.061Z,24.13
2023-01-25T12:24:11.332Z,19.45
2023-01-25T12:26:45.147Z,21.08
2023-01-25T12:29:22.009Z,23.60
2023-01-25T12:31:57.885Z,25.50
2023-01-25T12:34:31.682Z,21.10
2023-01-25T12:37:03.493Z,14.25
2023-01-25T12:39:35.906Z,20.98
2023-01-25T12:42:09.231Z,10.80
2023-01-25T12:44:41.875Z,18.92
2023-01-25T12:47:18.815Z,14.93
2023-01-25T12:49:53.082Z,22.50
2023-01-25T12:52:26.335Z,17.92
2023-01-25T12:54:57.079Z,14.88
2023-01-25T12:57:32.239Z,23.58
2023-01-25T13:00:09.866Z,20.02
2023-01-25T13:03:09.767Z,19.33
2023-01-25T13:05:42.604Z,24.10
2023-01-25T13:08:31.091Z,8.82
2023-01-25T13:11:10.561Z,14.85
2023-01-25T13:13:40.009Z,22.35
2023-01-25T13:16:34.921Z,24.35
2023-01-25T13:19:07.006Z,22.92
2023-01-25T13:21:45.129Z,19.80
2023-01-25T13:24:25.172Z,24.33
2023-01-25T13:27:06.355Z,19.48
2023-01-25T13:30:06.418Z,18.70
2023-01-25T13:33:06.968Z,20.08
2023-01-25T13:35:46.344Z,20.98
2023-01-25T13:38:39.807Z,21.63
2023-01-25T13:41:15.563Z,20.92
2023-01-25T13:43:47.177Z,23.20
2023-01-25T13:46:20.509Z,22.30
2023-01-25T13:48:55.258Z,24.30
2023-01-25T13:51:28.325Z,18.83
2023-01-25T13:53:59.110Z,22.02
2023-01-25T13:56:33.662Z,18.58
2023-01-25T13:59:03.504Z,18.08
2023-01-25T14:01:34.589Z,22.70
2023-01-25T14:04:06.061Z,18.92
2023-01-25T14:06:40.805Z,28.52
2023-01-25T14:09:17.048Z,22.95
2023-01-25T14:11:48.680Z,21.88
2023-01-25T14:14:23.854Z,24.50
2023-01-25T14:17:20.874Z,23.95
2023-01-25T14:19:52.323Z,22.90
2023-01-25T14:22:27.460Z,20.70
2023-01-25T14:25:09.784Z,23.23
2023-01-25T14:27:43.345Z,23.15
2023-01-25T14:30:19.710Z,23.50
2023-01-25T14:32:49.261Z,21.60
2023-01-25T14:35:43.327Z,20.75
2023-01-25T14:38:31.042Z,13.80
2023-01-25T14:41:04.041Z,12.00
2023-01-25T14:43:33.874Z,18.67
2023-01-25T14:46:03.327Z,22.02
2023-01-25T14:48:40.833Z,20.73
2023-01-25T14:51:21.495Z,20.80
2023-01-25T14:53:58.694Z,18.42
2023-01-25T14:56:37.510Z,22.15
2023-01-25T14:59:07.969Z,22.02
2023-01-25T15:01:42.082Z,18.17
2023-01-25T15:04:15.568Z,23.48
2023-01-25T15:06:49.622Z,23.63
2023-01-25T15:09:40.183Z,23.83
2023-01-25T15:12:31.401Z,25.80
2023-01-25T15:15:02.890Z,26.20
2023-01-25T15:17:39.143Z,27.08
2023-01-25T15:20:10.193Z,27.65
2023-01-25T15:22:39.743Z,27.67
2023-01-25T15:25:23.884Z,26.63
2023-01-25T15:27:54.710Z,28.55
2023-01-25T15:30:24.230Z,23.10
2023-01-25T15:32:53.777Z,24.35
2023-01-25T15:35:23.677Z,25.63
2023-01-25T15:37:53.038Z,24.67
2023-01-25T15:40:24.988Z,21.48
2023-01-25T15:42:55.729Z,23.85
2023-01-25T15:45:25.085Z,23.13
2023-01-25T15:47:54.480Z,23.08
2023-01-25T15:50:23.925Z,25.75
2023-01-25T15:52:53.344Z,16.83
2023-01-25T15:55:26.761Z,26.77
2023-01-25T15:57:57.367Z,25.80
2023-01-25T16:00:27.055Z,25.95
2023-01-25T16:02:56.507Z,28.52
2023-01-25T16:05:25.926Z,28.58
2023-01-25T16:07:55.877Z,28.75
2023-01-25T16:10:28.031Z,27.75
2023-01-25T16:12:57.442Z,26.67
2023-01-25T16:15:26.819Z,25.60
2023-01-25T16:17:56.239Z,22.95
2023-01-25T16:20:25.649Z,20.30
2023-01-25T16:22:55.071Z,26.63
2023-01-25T16:25:24.553Z,27.30
2023-01-25T16:27:56.746Z,22.95
2023-01-25T16:30:31.192Z,26.25
2023-01-25T16:33:00.790Z,24.00
2023-01-25T16:35:30.219Z,26.17
2023-01-25T16:37:59.842Z,28.98
2023-01-25T16:40:32.599Z,24.98
2023-01-25T16:43:04.548Z,26.42
2023-01-25T16:45:33.958Z,26.83
2023-01-25T16:48:04.018Z,22.55
2023-01-25T16:50:33.483Z,28.08
2023-01-25T16:53:03.119Z,26.00
2023-01-25T16:55:32.565Z,19.45
2023-01-25T16:58:04.813Z,22.00
2023-01-25T17:00:34.273Z,25.60
2023-01-25T17:03:03.688Z,22.67
2023-01-25T17:05:34.271Z,23.90
2023-01-25T17:08:03.808Z,22.83
2023-01-25T17:10:35.839Z,21.73
2023-01-25T17:13:08.846Z,25.52
2023-01-25T17:15:38.243Z,23.98
2023-01-25T17:18:07.703Z,27.23
2023-01-25T17:20:37.106Z,26.40
2023-01-25T17:23:06.489Z,23.90
2023-01-25T17:25:40.518Z,27.70
2023-01-25T17:28:12.693Z,25.75
2023-01-25T17:30:43.047Z,22.48
2023-01-25T17:33:12.910Z,25.80
2023-01-25T17:35:42.349Z,25.92
2023-01-25T17:38:11.787Z,26.23
2023-01-25T17:40:41.163Z,18.20
2023-01-25T17:43:13.122Z,21.30
2023-01-25T17:45:42.520Z,22.45
2023-01-25T17:48:12.832Z,24.98
2023-01-25T17:50:42.633Z,20.92
2023-01-25T17:53:13.053Z,26.63
2023-01-25T17:55:42.456Z,23.15
2023-01-25T17:58:14.408Z,26.40
2023-01-25T18:00:43.824Z,25.98
2023-01-25T18:03:13.458Z,24.45
2023-01-25T18:05:44.686Z,17.45
2023-01-25T18:08:14.205Z,27.10
2023-01-25T18:10:43.989Z,28.05
2023-01-25T18:13:15.977Z,29.92
2023-01-25T18:15:45.429Z,23.33
2023-01-25T18:18:14.925Z,32.20
2023-01-25T18:20:44.314Z,23.13
2023-01-25T18:23:13.777Z,29.23
2023-01-25T18:25:43.142Z,28.90
2023-01-25T18:28:18.363Z,30.10
2023-01-25T18:30:53.617Z,29.90
2023-01-25T18:33:23.435Z,27.83
2023-01-25T18:35:54.010Z,30.27
2023-01-25T18:38:23.410Z,31.60
2023-01-25T18:40:52.775Z,21.55
2023-01-25T18:43:25.111Z,28.77
2023-01-25T18:45:57.936Z,23.50
2023-01-25T18:48:30.456Z,29.05
2023-01-25T18:51:00.726Z,26.98
2023-01-25T18:53:30.220Z,14.75
2023-01-25T18:56:04.073Z,26.75
2023-01-25T18:58:37.626Z,24.40
2023-01-25T19:01:09.347Z,27.45
2023-01-25T19:03:38.735Z,24.52
2023-01-25T19:06:08.676Z,19.38
2023-01-25T19:08:41.335Z,17.30
2023-01-25T19:11:12.405Z,19.25
2023-01-25T19:13:45.296Z,26.00
2023-01-25T19:16:16.619Z,25.48
2023-01-25T19:18:49.768Z,31.27
2023-01-25T19:21:20.587Z,26.50
2023-01-25T19:23:50.367Z,29.58
2023-01-25T19:26:21.413Z,29.40
2023-01-25T19:28:53.677Z,30.00
2023-01-25T19:31:24.323Z,29.75
2023-01-25T19:33:57.612Z,31.33
2023-01-25T19:36:27.022Z,28.88
2023-01-25T19:38:57.389Z,30.02
2023-01-25T19:41:28.495Z,30.83
2023-01-25T19:44:01.819Z,30.55
2023-01-25T19:46:32.888Z,29.30
2023-01-25T19:49:04.230Z,29.92
2023-01-25T19:51:34.869Z,31.90
2023-01-25T19:54:06.045Z,29.40
2023-01-25T19:56:36.901Z,28.50
2023-01-25T19:59:10.582Z,28.20
2023-01-25T20:01:44.197Z,28.80
2023-01-25T20:04:14.695Z,27.55
2023-01-25T20:06:44.507Z,29.67
2023-01-25T20:09:14.979Z,30.52
2023-01-25T20:11:44.595Z,27.50
2023-01-25T20:14:16.804Z,28.02
2023-01-25T20:16:47.084Z,27.98
2023-01-25T20:19:16.490Z,26.48
2023-01-25T20:21:45.897Z,27.25
2023-01-25T20:24:15.330Z,27.52
2023-01-25T20:26:45.181Z,26.38
2023-01-25T20:29:17.291Z,26.35
2023-01-25T20:31:48.077Z,26.13
2023-01-25T20:34:19.157Z,27.67
2023-01-25T20:36:49.166Z,27.15
2023-01-25T20:39:20.974Z,27.25
2023-01-25T20:41:53.272Z,27.23
2023-01-25T20:44:25.495Z,27.73
2023-01-25T20:46:55.726Z,26.85
2023-01-25T20:49:25.387Z,28.73
2023-01-25T20:51:54.789Z,28.27
2023-01-25T20:54:24.147Z,27.33
2023-01-25T20:56:53.588Z,25.27
2023-01-25T20:59:25.619Z,28.48
2023-01-25T21:01:55.210Z,26.10
2023-01-25T21:04:24.782Z,28.20
2023-01-25T21:06:54.235Z,27.23
2023-01-25T21:09:26.233Z,29.73
2023-01-25T21:11:55.682Z,29.48
2023-01-25T21:14:30.615Z,28.45
2023-01-25T21:17:00.743Z,30.10
2023-01-25T21:19:30.168Z,29.73
2023-01-25T21:21:59.590Z,28.95
2023-01-25T21:24:29.028Z,25.08
2023-01-25T21:26:58.408Z,20.25
2023-01-25T21:29:30.375Z,24.98
2023-01-25T21:31:59.802Z,28.73
2023-01-25T21:34:30.936Z,26.55
2023-01-25T21:37:00.348Z,26.95
2023-01-25T21:39:29.761Z,28.38
2023-01-25T21:41:59.148Z,28.13
2023-01-25T21:44:43.570Z,27.33
2023-01-25T21:47:29.369Z,25.58
2023-01-25T21:50:12.384Z,25.70
2023-01-25T21:52:42.008Z,24.35
2023-01-25T21:55:12.707Z,26.90
2023-01-25T21:57:47.110Z,29.35
2023-01-25T22:00:20.649Z,27.02
2023-01-25T22:02:50.329Z,26.63
2023-01-25T22:05:19.773Z,21.00
2023-01-25T22:07:49.179Z,20.15
2023-01-25T22:10:19.434Z,24.45
2023-01-25T22:12:50.712Z,23.15
2023-01-25T22:15:22.715Z,24.65
2023-01-25T22:17:52.090Z,25.48
2023-01-25T22:20:21.710Z,27.52
2023-01-25T22:22:51.110Z,29.50
2023-01-25T22:25:20.482Z,26.95
2023-01-25T22:27:55.282Z,25.80
2023-01-25T22:30:27.500Z,28.90
2023-01-25T22:32:57.068Z,26.88
2023-01-25T22:35:26.516Z,18.27
2023-01-25T22:37:55.919Z,26.15
2023-01-25T22:40:25.292Z,28.10
2023-01-25T22:42:54.659Z,24.48
2023-01-25T22:45:24.076Z,25.98
2023-01-25T22:47:56.027Z,29.40
2023-01-25T22:50:25.476Z,26.98
2023-01-25T22:52:54.829Z,29.55
2023-01-25T22:55:24.195Z,30.92
2023-01-25T22:57:53.819Z,29.20
2023-01-25T23:00:23.675Z,25.75
2023-01-25T23:02:53.071Z,32.40
2023-01-25T23:05:25.061Z,28.25
2023-01-25T23:07:54.461Z,30.15
2023-01-25T23:10:23.933Z,30.92
2023-01-25T23:12:55.295Z,29.50
2023-01-25T23:15:24.901Z,31.95
2023-01-25T23:18:06.784Z,29.23
2023-01-25T23:20:38.766Z,29.15
2023-01-25T23:23:08.225Z,29.55
2023-01-25T23:25:37.629Z,29.52
2023-01-25T23:28:07.090Z,29.20
2023-01-25T23:30:36.549Z,26.75
2023-01-25T23:33:06.118Z,30.20
2023-01-25T23:35:38.113Z,29.35
2023-01-25T23:38:16.031Z,25.20
2023-01-25T23:40:45.632Z,30.10
2023-01-25T23:43:15.032Z,28.40
2023-01-25T23:45:45.565Z,31.75
2023-01-25T23:48:14.979Z,24.25
2023-01-25T23:50:46.995Z,27.80
2023-01-25T23:53:16.371Z,26.45
2023-01-25T23:55:54.229Z,29.92
2023-01-25T23:58:24.432Z,21.80
